Airfield :
LOGIN :

Register | Disclaimer

   EN    FR    IT 

 










Legend :    VFR   Marginal VFR   IFR   Intensive IFR   Very Intensive IFR
Visi :
Ceiling :
>= 8 km
>= 3000ft
5 to 8 km
1000 to 3000 ft
1500m to 5 km
500 to 1000 ft
800 to 1500m
200 to 500 ft
< 800m
< 200 ft
Symbols :   Thunderstorms  Fog  Heavy snow  Heavy precipitations  Wind > 20 kt
SIGMETs :     Misc.  Thunderstorms  Icing  Turbulence  Mountain Waves  Volcanic Ashes







- Airport Elevation : 659 ft
- IATA code : LGG


EBLG - Liège

CURRENT METAR :
  • 211650Z 29008KT 260V330 CAVOK 25/12 Q1012 NOSIG

EXPIRED METARs :
  • 211620Z 29008KT CAVOK 25/11 Q1012 NOSIG
  • 211550Z 29009KT CAVOK 25/12 Q1012 NOSIG
  • 211520Z 29008KT 260V340 CAVOK 26/12 Q1012 NOSIG
  • 211450Z 28008KT 250V320 CAVOK 27/11 Q1012 NOSIG
  • 211420Z 28009KT 250V330 CAVOK 27/11 Q1012 NOSIG
  • 211350Z 31005KT 260V010 CAVOK 27/11 Q1012 NOSIG

TAF TAF EBLG
Valid from the 21 at 12:00 until the 22 at 18:00 UTC


211130Z 2112/2218 27005KT 9999 SCT040
PROB30
TEMPO 2112/2120 VRB15G30KT 3000 SHRA TSRA
No reported NOTAMs for that airfield.



MET'MAP, your aeronautical weather chart ! - Copyright ORBIFLY December 2007 - Disclaimer

ORBIFLY MET'MAP TEAM :

Programming & Development : Alexandra Zaïnal
Concept & Development : Baudouin d'Aumeries
Co-Development & Prog : Marc-Olivier Méhu
Technical & hardware support : Manuel Goepfert

Contact : metmap@orbifly.com




SOURCES & CREDITS :

   NOAA